Time;durP1;ratioP1;P1;durP2;ratioP2;P2;SDS_P1;SDS_P2;PMS_P1;PMS_P2;Temp;Humidity;BMP_temperature;BMP_pressure;BME280_temperature;BME280_humidity;BME280_pressure;Samples;Min_cycle;Max_cycle;Signal;HPM_P1;HPM_P2
2021/09/24 00:01:43;;;;;;;5.20;4.73;;;15.40;99.90;;;;;;5033000;28;20945;-62
2021/09/24 00:04:11;;;;;;;5.27;4.70;;;15.50;99.90;;;;;;5032598;28;20444;-62
2021/09/24 00:06:38;;;;;;;5.40;4.90;;;15.50;99.90;;;;;;5032808;28;20409;-62
2021/09/24 00:09:04;;;;;;;5.23;4.30;;;15.60;99.90;;;;;;5032086;28;20432;-62
2021/09/24 00:11:30;;;;;;;5.20;4.80;;;15.60;99.90;;;;;;5032605;28;20911;-62
2021/09/24 00:13:55;;;;;;;6.30;5.70;;;15.60;99.90;;;;;;5032388;28;20237;-62
2021/09/24 00:16:21;;;;;;;4.77;4.37;;;15.70;99.90;;;;;;5033122;28;20183;-62
2021/09/24 00:18:47;;;;;;;6.70;6.10;;;15.60;99.90;;;;;;5032913;28;20169;-62
2021/09/24 00:21:12;;;;;;;5.20;4.70;;;15.60;99.90;;;;;;5032468;28;20235;-62
2021/09/24 00:23:38;;;;;;;5.73;5.23;;;15.60;99.90;;;;;;5032032;28;20278;-62
2021/09/24 00:26:03;;;;;;;5.07;4.67;;;15.50;99.90;;;;;;5033178;28;20237;-62
2021/09/24 00:28:29;;;;;;;6.03;5.43;;;15.50;99.90;;;;;;5032337;28;20178;-62
2021/09/24 00:30:54;;;;;;;9.40;5.67;;;15.60;99.90;;;;;;5032362;28;20305;-62
2021/09/24 00:33:20;;;;;;;5.80;5.30;;;15.60;99.90;;;;;;5032176;28;20217;-62
2021/09/24 00:35:46;;;;;;;5.73;4.80;;;15.50;99.90;;;;;;5032192;28;20208;-62
2021/09/24 00:38:11;;;;;;;4.77;4.37;;;15.50;99.90;;;;;;5031853;28;20162;-62
2021/09/24 00:40:37;;;;;;;6.97;5.40;;;15.50;99.90;;;;;;5032096;28;20169;-62
2021/09/24 00:43:03;;;;;;;6.60;5.97;;;15.40;99.90;;;;;;5032101;28;20205;-62
2021/09/24 00:45:29;;;;;;;5.23;4.83;;;15.30;99.90;;;;;;5032156;28;20174;-62
2021/09/24 00:47:55;;;;;;;6.43;5.83;;;15.40;99.90;;;;;;5032387;28;20397;-62
2021/09/24 00:50:20;;;;;;;5.67;5.17;;;15.40;99.90;;;;;;5032405;28;20209;-62
2021/09/24 00:52:52;;;;;;;6.47;4.80;;;15.40;99.90;;;;;;5031599;28;20301;-61
2021/09/24 00:55:17;;;;;;;5.73;5.23;;;15.40;99.90;;;;;;5031952;28;20201;-62
2021/09/24 00:57:44;;;;;;;9.07;5.37;;;15.40;99.90;;;;;;5035026;28;20503;-62
2021/09/24 01:00:10;;;;;;;5.50;5.00;;;15.40;99.90;;;;;;5035787;28;20176;-62
2021/09/24 01:02:36;;;;;;;5.23;4.73;;;15.40;99.90;;;;;;5035834;28;20483;-62
2021/09/24 01:05:02;;;;;;;5.90;4.80;;;15.40;99.90;;;;;;5036018;28;20419;-62
2021/09/24 01:07:28;;;;;;;5.30;4.80;;;15.40;99.90;;;;;;5035430;28;20176;-62
2021/09/24 01:09:55;;;;;;;6.00;5.40;;;15.40;99.90;;;;;;5035804;28;20420;-62
2021/09/24 01:12:21;;;;;;;6.20;5.60;;;15.30;99.90;;;;;;5035547;28;20433;-62
2021/09/24 01:14:57;;;;;;;6.43;5.10;;;15.10;99.90;;;;;;5035417;28;20447;-62
2021/09/24 01:17:23;;;;;;;9.90;5.80;;;14.90;99.90;;;;;;5036011;28;20167;-62
2021/09/24 01:19:49;;;;;;;6.03;5.50;;;14.90;99.90;;;;;;5035865;28;20413;-62
2021/09/24 01:22:14;;;;;;;6.70;6.10;;;14.80;99.90;;;;;;5034335;28;20289;-63
2021/09/24 01:24:40;;;;;;;6.07;5.40;;;14.80;99.90;;;;;;5035493;28;20174;-62
2021/09/24 01:27:06;;;;;;;7.37;5.80;;;14.80;99.90;;;;;;5036086;28;20183;-62
2021/09/24 01:29:31;;;;;;;6.37;5.73;;;14.70;99.90;;;;;;5035820;28;20174;-61
2021/09/24 01:31:57;;;;;;;6.13;5.30;;;14.70;99.90;;;;;;5035537;28;20251;-62
2021/09/24 01:34:23;;;;;;;6.20;5.70;;;14.70;99.90;;;;;;5035795;28;20210;-61
2021/09/24 01:36:49;;;;;;;6.20;5.60;;;14.80;99.90;;;;;;5034688;28;20905;-62
2021/09/24 01:39:14;;;;;;;6.17;5.57;;;14.80;99.90;;;;;;5023955;28;20181;-62
2021/09/24 01:41:42;;;;;;;5.70;5.13;;;14.70;99.90;;;;;;5035550;28;20179;-61
2021/09/24 01:44:08;;;;;;;6.47;5.67;;;14.60;99.90;;;;;;5035625;28;20659;-62
2021/09/24 01:46:41;;;;;;;5.93;5.43;;;14.60;99.90;;;;;;5035312;28;20409;-62
2021/09/24 01:49:08;;;;;;;5.43;4.93;;;14.60;99.90;;;;;;5035658;28;20190;-64
2021/09/24 01:51:34;;;;;;;5.73;5.10;;;14.60;99.90;;;;;;5035422;28;20793;-61
2021/09/24 01:54:01;;;;;;;5.93;5.20;;;14.60;99.90;;;;;;5034780;28;20451;-62
2021/09/24 01:56:26;;;;;;;5.67;5.07;;;14.60;99.90;;;;;;5035458;28;20415;-62
2021/09/24 01:58:52;;;;;;;5.97;5.43;;;14.50;99.90;;;;;;5035435;28;20428;-62
2021/09/24 02:01:17;;;;;;;6.63;5.93;;;14.40;99.90;;;;;;5035660;28;20614;-61
2021/09/24 02:03:43;;;;;;;6.20;5.60;;;14.40;99.90;;;;;;5032267;28;20199;-62
2021/09/24 02:06:09;;;;;;;7.07;6.20;;;14.50;99.90;;;;;;5029258;28;20187;-62
2021/09/24 02:08:34;;;;;;;5.40;4.90;;;14.60;99.90;;;;;;5015103;28;20182;-62
2021/09/24 02:11:00;;;;;;;5.43;5.00;;;14.50;99.90;;;;;;5015035;28;20178;-62
2021/09/24 02:13:25;;;;;;;6.10;5.50;;;14.60;99.90;;;;;;5014980;28;20637;-62
2021/09/24 02:15:51;;;;;;;5.60;5.10;;;14.50;99.90;;;;;;5014362;28;20168;-62
2021/09/24 02:18:18;;;;;;;7.03;5.90;;;14.50;99.90;;;;;;5017532;28;20178;-62
2021/09/24 02:20:44;;;;;;;6.17;5.60;;;14.40;99.90;;;;;;5033819;28;20233;-62
2021/09/24 02:23:09;;;;;;;6.87;6.00;;;14.40;99.90;;;;;;5032649;28;20439;-62
2021/09/24 02:25:35;;;;;;;6.30;5.70;;;14.40;99.90;;;;;;5031386;28;20488;-62
2021/09/24 02:28:01;;;;;;;6.50;5.77;;;14.30;99.90;;;;;;5034485;28;20633;-62
2021/09/24 02:30:26;;;;;;;6.90;5.23;;;14.20;99.90;;;;;;5034509;28;20169;-62
2021/09/24 02:32:52;;;;;;;7.00;5.90;;;14.20;99.90;;;;;;5034932;28;20586;-62
2021/09/24 02:35:18;;;;;;;7.07;6.10;;;14.10;99.90;;;;;;5034284;28;20204;-62
2021/09/24 02:37:43;;;;;;;9.23;6.20;;;14.10;99.90;;;;;;5033965;28;20177;-62
2021/09/24 02:40:09;;;;;;;6.03;5.50;;;14.00;99.90;;;;;;5034639;28;20645;-62
2021/09/24 02:42:35;;;;;;;6.80;6.20;;;14.00;99.90;;;;;;5034095;28;20194;-62
2021/09/24 02:45:01;;;;;;;6.37;5.77;;;14.00;99.90;;;;;;5034141;28;20425;-62
2021/09/24 02:47:27;;;;;;;6.93;6.30;;;14.00;99.90;;;;;;5034290;28;20178;-62
2021/09/24 02:49:52;;;;;;;6.00;5.43;;;14.00;99.90;;;;;;5034133;28;20186;-62
2021/09/24 02:52:18;;;;;;;5.67;5.17;;;14.00;99.90;;;;;;5033743;28;20685;-62
2021/09/24 02:54:43;;;;;;;6.43;5.83;;;14.00;99.90;;;;;;5033650;28;20196;-62
2021/09/24 02:57:09;;;;;;;6.30;5.70;;;14.00;99.90;;;;;;5034261;28;20173;-62
2021/09/24 02:59:35;;;;;;;7.37;5.70;;;14.00;99.90;;;;;;5034175;28;20171;-62
2021/09/24 03:02:00;;;;;;;6.30;5.70;;;13.80;99.90;;;;;;5033811;28;20275;-62
2021/09/24 03:04:26;;;;;;;7.73;6.57;;;13.80;99.90;;;;;;5033834;28;20545;-62
2021/09/24 03:06:52;;;;;;;6.20;5.70;;;13.80;99.90;;;;;;5033873;28;20199;-62
2021/09/24 03:09:17;;;;;;;5.90;5.40;;;13.70;99.90;;;;;;5033286;28;20255;-62
2021/09/24 03:11:43;;;;;;;6.70;6.00;;;13.70;99.90;;;;;;5033817;28;20173;-62
2021/09/24 03:14:10;;;;;;;6.23;5.67;;;13.60;99.90;;;;;;5033852;28;20199;-62
2021/09/24 03:16:37;;;;;;;6.63;5.80;;;13.60;99.90;;;;;;5033916;28;20883;-62
2021/09/24 03:19:04;;;;;;;6.70;6.10;;;13.60;99.90;;;;;;5032962;28;20818;-62
2021/09/24 03:21:30;;;;;;;6.50;5.90;;;13.40;99.90;;;;;;5033071;28;20426;-62
2021/09/24 03:23:56;;;;;;;6.60;6.00;;;13.50;99.90;;;;;;5032857;28;20431;-62
2021/09/24 03:26:21;;;;;;;7.27;6.10;;;13.60;99.90;;;;;;5033563;28;20282;-62
2021/09/24 03:28:47;;;;;;;6.33;5.60;;;13.70;99.90;;;;;;5033731;28;20175;-62
2021/09/24 03:31:14;;;;;;;9.30;5.60;;;13.70;99.90;;;;;;5033691;28;20179;-62
2021/09/24 03:33:40;;;;;;;6.30;5.70;;;13.70;99.90;;;;;;5033547;28;20203;-62
2021/09/24 03:36:05;;;;;;;6.20;5.10;;;13.70;99.90;;;;;;5033416;28;20432;-62
2021/09/24 03:38:31;;;;;;;7.67;6.97;;;13.70;99.90;;;;;;5032879;28;20164;-62
2021/09/24 03:40:57;;;;;;;7.50;6.03;;;13.80;99.90;;;;;;5033332;28;20676;-62
2021/09/24 03:43:22;;;;;;;6.33;5.73;;;13.70;99.90;;;;;;5033446;28;20206;-62
2021/09/24 03:45:48;;;;;;;6.40;5.80;;;13.80;99.90;;;;;;5033502;28;20544;-62
2021/09/24 03:48:14;;;;;;;6.90;6.20;;;13.80;99.90;;;;;;5033224;28;20179;-62
2021/09/24 03:50:39;;;;;;;7.30;6.60;;;13.80;99.90;;;;;;5033225;28;20180;-62
2021/09/24 03:53:05;;;;;;;6.33;5.30;;;13.80;99.90;;;;;;5082086;23;20217;-60
2021/09/24 03:55:31;;;;;;;6.70;6.00;;;13.80;99.90;;;;;;5093420;28;20174;-61
2021/09/24 03:57:56;;;;;;;6.00;5.50;;;13.90;99.90;;;;;;5093677;28;20172;-61
2021/09/24 04:00:22;;;;;;;6.50;5.90;;;13.90;99.90;;;;;;5093259;28;20224;-60
2021/09/24 04:02:47;;;;;;;6.37;5.77;;;13.80;99.90;;;;;;5093059;28;20186;-60
2021/09/24 04:05:13;;;;;;;5.43;5.03;;;13.90;99.90;;;;;;5092921;28;20197;-59
2021/09/24 04:07:39;;;;;;;7.43;6.67;;;13.90;99.90;;;;;;5093147;28;20173;-59
2021/09/24 04:10:05;;;;;;;7.37;6.47;;;13.90;99.90;;;;;;5092980;28;20568;-60
2021/09/24 04:12:31;;;;;;;10.70;6.30;;;13.80;99.90;;;;;;5093064;28;20187;-59
2021/09/24 04:14:56;;;;;;;7.40;5.80;;;13.80;99.90;;;;;;5093261;28;20450;-59
2021/09/24 04:17:22;;;;;;;6.10;5.60;;;13.80;99.90;;;;;;5093605;28;20560;-60
2021/09/24 04:19:47;;;;;;;7.03;6.37;;;13.70;99.90;;;;;;5093122;28;20176;-61
2021/09/24 04:22:13;;;;;;;7.30;6.60;;;13.70;99.90;;;;;;5092891;28;20533;-61
2021/09/24 04:24:39;;;;;;;6.87;6.27;;;13.70;99.90;;;;;;5086070;28;20171;-61
2021/09/24 04:27:05;;;;;;;6.77;6.10;;;13.70;99.90;;;;;;5072776;28;20230;-61
2021/09/24 04:29:31;;;;;;;7.17;6.47;;;13.70;99.90;;;;;;5072766;28;20167;-61
2021/09/24 04:31:56;;;;;;;9.57;6.70;;;13.70;99.90;;;;;;5076426;28;20400;-60
2021/09/24 04:34:22;;;;;;;7.80;7.00;;;13.60;99.90;;;;;;5076764;28;20450;-60
2021/09/24 04:36:48;;;;;;;7.23;6.53;;;13.50;99.90;;;;;;5076625;28;20172;-61
2021/09/24 04:39:13;;;;;;;7.37;6.47;;;13.40;99.90;;;;;;5076082;28;20162;-61
2021/09/24 04:41:39;;;;;;;6.43;5.63;;;13.40;99.90;;;;;;5076376;28;20171;-61
2021/09/24 04:44:04;;;;;;;7.57;6.87;;;13.40;99.90;;;;;;5076640;28;20198;-61
2021/09/24 04:46:30;;;;;;;6.03;5.53;;;13.40;99.90;;;;;;5076654;28;20205;-60
2021/09/24 04:48:57;;;;;;;7.30;6.63;;;13.40;99.90;;;;;;5076655;28;20315;-61
2021/09/24 04:51:23;;;;;;;6.87;6.20;;;13.30;99.90;;;;;;5078389;28;20297;-61
2021/09/24 04:53:49;;;;;;;7.00;6.30;;;13.30;99.90;;;;;;5096005;28;20542;-60
2021/09/24 04:56:14;;;;;;;7.63;6.33;;;13.30;99.90;;;;;;5096335;28;20563;-58
2021/09/24 04:58:40;;;;;;;8.07;7.27;;;13.30;99.90;;;;;;5096771;28;20203;-60
2021/09/24 05:01:05;;;;;;;7.37;6.67;;;13.30;99.90;;;;;;5096758;28;20162;-60
2021/09/24 05:03:31;;;;;;;9.53;7.47;;;13.30;99.90;;;;;;5096627;28;20188;-61
2021/09/24 05:05:57;;;;;;;7.73;7.03;;;13.30;99.90;;;;;;5096862;28;20172;-60
2021/09/24 05:08:22;;;;;;;7.50;6.43;;;13.20;99.90;;;;;;5096300;28;20200;-61
2021/09/24 05:10:48;;;;;;;7.93;7.23;;;13.20;99.90;;;;;;5095799;28;20176;-61
2021/09/24 05:13:13;;;;;;;7.87;6.70;;;13.30;99.90;;;;;;5085014;28;20598;-60
2021/09/24 05:15:39;;;;;;;6.77;6.17;;;13.20;99.90;;;;;;5096356;28;20245;-61
2021/09/24 05:18:06;;;;;;;7.67;6.97;;;13.20;99.90;;;;;;5096292;28;20166;-59
2021/09/24 05:20:32;;;;;;;7.60;6.80;;;13.10;99.90;;;;;;5095531;28;20176;-62
2021/09/24 05:22:58;;;;;;;7.30;6.60;;;13.10;99.90;;;;;;5094911;28;20784;-61
2021/09/24 05:25:24;;;;;;;7.77;6.97;;;13.20;99.90;;;;;;5095588;28;20395;-58
2021/09/24 05:27:50;;;;;;;6.63;6.00;;;13.20;99.90;;;;;;5095746;28;20183;-60
2021/09/24 05:30:15;;;;;;;6.93;6.30;;;13.20;99.90;;;;;;5096204;28;20165;-60
2021/09/24 05:32:41;;;;;;;7.00;6.30;;;13.30;99.90;;;;;;5095595;28;20221;-59
2021/09/24 05:35:08;;;;;;;11.33;6.67;;;13.40;99.90;;;;;;5095695;28;20284;-60
2021/09/24 05:37:34;;;;;;;8.03;7.10;;;13.20;99.90;;;;;;5095548;28;20157;-60
2021/09/24 05:39:59;;;;;;;9.07;8.07;;;13.10;99.90;;;;;;5095406;28;20403;-60
2021/09/24 05:42:25;;;;;;;8.57;7.70;;;13.10;99.90;;;;;;5094941;28;20180;-60
2021/09/24 05:44:50;;;;;;;7.30;6.53;;;13.20;99.90;;;;;;5095890;28;20170;-58
2021/09/24 05:47:16;;;;;;;7.67;6.97;;;13.30;99.90;;;;;;5095646;28;20256;-60
2021/09/24 05:49:42;;;;;;;7.17;6.47;;;13.40;99.90;;;;;;5095555;28;20174;-59
2021/09/24 05:52:07;;;;;;;7.27;6.43;;;13.40;99.90;;;;;;5095076;28;20169;-58
2021/09/24 05:54:33;;;;;;;8.00;7.20;;;13.50;99.90;;;;;;5094937;28;20239;-62
2021/09/24 05:56:59;;;;;;;8.57;7.80;;;13.50;99.90;;;;;;5095509;28;20221;-60
2021/09/24 05:59:24;;;;;;;8.83;7.77;;;13.50;99.90;;;;;;5088035;28;20170;-59
2021/09/24 06:01:50;;;;;;;9.87;8.47;;;13.50;99.90;;;;;;5088765;28;20169;-60
2021/09/24 06:04:17;;;;;;;7.20;6.43;;;13.60;99.90;;;;;;5077945;28;20205;-61
2021/09/24 06:06:43;;;;;;;8.50;7.60;;;13.60;99.90;;;;;;5075425;28;20415;-61
2021/09/24 06:09:08;;;;;;;8.27;7.33;;;13.60;99.90;;;;;;5075165;28;20415;-61
2021/09/24 06:11:35;;;;;;;8.37;7.50;;;13.60;99.90;;;;;;5074907;28;20422;-60
2021/09/24 06:14:01;;;;;;;7.70;7.00;;;13.50;99.90;;;;;;5073858;28;20456;-61
2021/09/24 06:16:27;;;;;;;6.97;6.10;;;13.60;99.90;;;;;;5074745;28;20412;-59
2021/09/24 06:18:52;;;;;;;7.57;6.83;;;13.70;99.90;;;;;;5085044;28;20413;-61
2021/09/24 06:21:19;;;;;;;11.30;8.60;;;13.80;99.90;;;;;;5093893;28;20662;-61
2021/09/24 06:23:45;;;;;;;8.17;7.00;;;13.90;99.90;;;;;;5094478;28;20749;-60
2021/09/24 06:26:11;;;;;;;6.77;6.10;;;14.00;99.90;;;;;;5095017;28;20422;-61
2021/09/24 06:28:37;;;;;;;7.77;6.87;;;14.10;99.90;;;;;;5095147;28;20405;-56
2021/09/24 06:31:03;;;;;;;7.30;6.50;;;14.20;99.90;;;;;;5094885;28;20773;-60
2021/09/24 06:33:29;;;;;;;7.10;6.30;;;14.20;99.90;;;;;;5094338;28;20199;-59
2021/09/24 06:35:55;;;;;;;7.10;6.40;;;14.30;99.90;;;;;;5094716;28;20447;-61
2021/09/24 06:38:21;;;;;;;9.50;7.37;;;14.40;99.90;;;;;;5094652;28;20208;-61
2021/09/24 06:40:46;;;;;;;7.87;7.00;;;14.50;99.90;;;;;;5094836;28;20533;-59
2021/09/24 06:43:12;;;;;;;8.50;7.07;;;14.50;99.90;;;;;;5094227;28;20426;-60
2021/09/24 06:45:38;;;;;;;7.53;6.73;;;14.70;99.90;;;;;;5094448;28;20172;-66
2021/09/24 06:48:05;;;;;;;8.10;7.30;;;14.70;99.90;;;;;;5094311;28;20652;-60
2021/09/24 06:50:31;;;;;;;7.60;6.80;;;14.80;99.90;;;;;;5094592;28;20592;-58
2021/09/24 06:52:57;;;;;;;11.47;7.30;;;14.90;99.90;;;;;;5093774;28;20470;-58
2021/09/24 06:55:25;;;;;;;14.13;7.10;;;15.00;99.90;;;;;;5093522;28;20444;-60
2021/09/24 06:57:52;;;;;;;8.90;6.70;;;14.90;99.90;;;;;;5092918;28;20218;-60
2021/09/24 07:00:17;;;;;;;10.13;7.03;;;15.10;99.90;;;;;;5094414;28;20814;-59
2021/09/24 07:02:43;;;;;;;10.03;7.20;;;15.30;99.90;;;;;;5093549;28;20457;-60
2021/09/24 07:05:09;;;;;;;7.63;6.40;;;15.50;99.90;;;;;;5094093;28;20163;-59
2021/09/24 07:07:35;;;;;;;7.70;7.00;;;15.70;99.90;;;;;;5094293;28;20172;-59
2021/09/24 07:10:00;;;;;;;7.63;6.77;;;15.70;99.90;;;;;;5093686;28;20899;-60
2021/09/24 07:12:26;;;;;;;7.27;6.50;;;15.70;99.90;;;;;;5093926;28;20187;-59
2021/09/24 07:14:52;;;;;;;7.80;6.13;;;15.70;99.90;;;;;;5076677;28;20200;-60
2021/09/24 07:17:18;;;;;;;9.53;6.13;;;15.90;99.90;;;;;;5093612;28;20540;-58
2021/09/24 07:19:43;;;;;;;6.73;6.23;;;16.00;99.90;;;;;;5092560;28;20256;-60
2021/09/24 07:22:12;;;;;;;8.70;7.00;;;16.20;99.90;;;;;;5093753;28;20174;-53
2021/09/24 07:24:38;;;;;;;6.13;5.63;;;16.30;99.90;;;;;;5092303;28;20561;-60
2021/09/24 07:27:04;;;;;;;8.10;7.07;;;16.40;99.90;;;;;;5093702;28;20404;-60
2021/09/24 07:29:30;;;;;;;9.00;6.60;;;16.50;99.90;;;;;;5093688;28;20172;-60
2021/09/24 07:31:55;;;;;;;8.10;7.30;;;16.60;99.90;;;;;;5093954;28;20507;-60
2021/09/24 07:34:21;;;;;;;7.00;6.23;;;16.70;99.90;;;;;;5094911;28;20638;-62
2021/09/24 07:36:47;;;;;;;10.17;6.20;;;16.80;99.90;;;;;;5095867;28;20210;-60
2021/09/24 07:39:12;;;;;;;7.20;6.50;;;16.90;99.90;;;;;;5095499;28;20165;-59
2021/09/24 07:41:38;;;;;;;7.37;6.60;;;16.90;99.90;;;;;;5095178;28;20157;-60
2021/09/24 07:44:05;;;;;;;7.40;6.60;;;17.00;99.90;;;;;;5093631;28;20680;-59
2021/09/24 07:46:32;;;;;;;6.83;6.13;;;17.20;99.90;;;;;;5093948;28;20177;-59
2021/09/24 07:48:59;;;;;;;6.77;6.17;;;17.40;99.90;;;;;;5093610;28;20429;-58
2021/09/24 07:51:25;;;;;;;6.20;5.60;;;17.40;99.90;;;;;;5093365;28;20459;-59
2021/09/24 07:53:51;;;;;;;7.27;5.77;;;17.60;99.90;;;;;;5092685;28;20486;-59
2021/09/24 07:56:17;;;;;;;7.67;6.77;;;17.70;99.90;;;;;;5093519;28;20888;-58
2021/09/24 07:58:42;;;;;;;6.50;5.90;;;17.80;99.90;;;;;;5093466;28;20160;-60
2021/09/24 08:01:08;;;;;;;6.93;6.30;;;17.80;99.90;;;;;;5093194;28;20189;-60
2021/09/24 08:03:35;;;;;;;6.90;6.30;;;18.00;99.90;;;;;;5092452;28;20218;-60
2021/09/24 08:06:01;;;;;;;8.10;5.93;;;18.20;99.90;;;;;;5093345;28;20173;-60
2021/09/24 08:08:27;;;;;;;6.40;5.80;;;18.20;99.90;;;;;;5092876;28;20406;-60
2021/09/24 08:10:53;;;;;;;8.53;6.50;;;18.00;99.90;;;;;;5093107;28;20410;-60
2021/09/24 08:13:19;;;;;;;6.97;6.20;;;17.80;99.90;;;;;;5080110;28;20186;-60
2021/09/24 08:15:45;;;;;;;6.83;6.23;;;17.90;99.90;;;;;;5073143;28;20400;-60
2021/09/24 08:18:12;;;;;;;7.27;6.60;;;18.00;99.90;;;;;;5072849;28;20642;-60
2021/09/24 08:20:40;;;;;;;8.20;6.77;;;18.30;99.90;;;;;;5072869;28;20407;-59
2021/09/24 08:23:05;;;;;;;7.30;6.60;;;18.30;99.90;;;;;;5072786;28;20469;-60
2021/09/24 08:25:31;;;;;;;6.20;5.60;;;18.40;99.90;;;;;;5072463;28;20400;-60
2021/09/24 08:27:57;;;;;;;7.73;6.60;;;18.50;99.90;;;;;;5073054;28;20479;-59
2021/09/24 08:30:25;;;;;;;7.17;6.10;;;18.50;99.90;;;;;;5073113;28;20166;-60
2021/09/24 08:32:54;;;;;;;6.50;5.90;;;18.60;99.90;;;;;;5071446;28;20436;-59
2021/09/24 08:35:21;;;;;;;6.17;5.37;;;18.70;99.90;;;;;;5091083;28;20458;-60
2021/09/24 08:37:49;;;;;;;7.30;6.23;;;18.90;99.90;;;;;;5092789;28;20418;-58
2021/09/24 08:40:17;;;;;;;5.80;5.30;;;18.60;99.90;;;;;;5092702;28;20408;-60
2021/09/24 08:42:43;;;;;;;6.63;6.03;;;18.90;99.90;;;;;;5091574;28;20433;-60
2021/09/24 08:45:23;;;;;;;8.23;6.23;;;18.70;99.90;;;;;;5092769;28;20429;-59
2021/09/24 08:47:49;;;;;;;6.90;6.10;;;18.70;99.90;;;;;;5092632;28;20383;-60
2021/09/24 08:50:14;;;;;;;6.80;6.20;;;18.80;99.90;;;;;;5092542;28;20482;-60
2021/09/24 08:52:40;;;;;;;7.03;5.80;;;19.10;99.90;;;;;;5092447;28;20471;-59
2021/09/24 08:55:08;;;;;;;7.57;6.03;;;19.30;99.90;;;;;;5080681;28;20190;-62
2021/09/24 08:57:34;;;;;;;7.03;6.23;;;19.00;99.90;;;;;;5092928;28;20165;-60
2021/09/24 09:00:00;;;;;;;7.73;5.50;;;19.00;99.90;;;;;;5092793;28;20406;-60
2021/09/24 09:02:26;;;;;;;6.40;5.90;;;19.10;99.90;;;;;;5092702;28;20779;-60
2021/09/24 09:04:51;;;;;;;6.83;6.17;;;18.90;99.90;;;;;;5092167;28;20718;-61
2021/09/24 09:07:20;;;;;;;7.37;6.03;;;19.10;99.90;;;;;;5093003;28;20177;-61
2021/09/24 09:09:50;;;;;;;6.17;5.47;;;19.20;99.90;;;;;;5092141;28;20256;-58
2021/09/24 09:12:27;;;;;;;6.57;5.97;;;19.40;99.90;;;;;;5092713;28;20412;-61
2021/09/24 09:15:19;;;;;;;7.00;6.30;;;19.60;99.90;;;;;;5092650;28;20446;-60
2021/09/24 09:17:52;;;;;;;11.13;5.77;;;19.50;99.90;;;;;;5092512;28;20411;-59
2021/09/24 09:20:24;;;;;;;5.23;4.73;;;19.50;99.90;;;;;;5096049;28;20387;-61
2021/09/24 09:23:10;;;;;;;6.93;6.07;;;19.90;99.90;;;;;;5096425;28;20422;-61
2021/09/24 09:25:41;;;;;;;6.20;5.33;;;20.20;99.90;;;;;;5095823;28;20475;-60
2021/09/24 09:28:13;;;;;;;11.80;5.07;;;20.30;99.90;;;;;;5095884;28;20403;-60
2021/09/24 09:30:41;;;;;;;4.90;4.50;;;20.50;99.90;;;;;;5096416;28;20422;-59
2021/09/24 09:33:17;;;;;;;4.10;3.73;;;20.60;99.90;;;;;;5096158;28;20455;-60
2021/09/24 09:35:47;;;;;;;4.90;4.07;;;20.80;99.90;;;;;;5095734;28;20399;-58
2021/09/24 09:38:38;;;;;;;4.80;3.83;;;21.00;99.90;;;;;;5096158;28;20398;-60
2021/09/24 09:41:09;;;;;;;5.07;4.50;;;21.20;99.90;;;;;;5095537;28;20411;-59
2021/09/24 09:43:41;;;;;;;4.43;4.00;;;21.40;99.90;;;;;;5095631;28;20411;-59
2021/09/24 09:46:09;;;;;;;7.50;4.83;;;21.70;99.90;;;;;;5095666;28;20391;-60
2021/09/24 09:48:36;;;;;;;4.90;4.50;;;21.70;99.90;;;;;;5095678;28;20392;-60
2021/09/24 09:51:01;;;;;;;4.10;3.80;;;21.60;99.90;;;;;;5095400;28;20391;-59
2021/09/24 09:53:28;;;;;;;5.20;4.70;;;21.60;99.90;;;;;;5114551;22;20496;-62
2021/09/24 09:55:58;;;;;;;4.50;3.63;;;21.70;99.90;;;;;;5053712;28;20206;-62
2021/09/24 09:58:30;;;;;;;4.50;4.10;;;21.60;99.90;;;;;;5054907;28;20500;-62
2021/09/24 10:01:15;;;;;;;5.00;4.60;;;21.60;99.90;;;;;;5055132;28;20449;-62
2021/09/24 10:03:49;;;;;;;4.63;4.10;;;21.70;99.90;;;;;;5045812;28;20525;-62
2021/09/24 10:06:31;;;;;;;4.87;4.30;;;22.00;99.90;;;;;;5034767;28;20394;-62
2021/09/24 10:08:59;;;;;;;5.03;4.53;;;22.00;99.90;;;;;;5034715;28;20474;-62
2021/09/24 10:11:36;;;;;;;4.30;3.90;;;21.80;99.90;;;;;;5034549;28;20402;-61
2021/09/24 10:14:09;;;;;;;5.87;4.27;;;21.60;99.90;;;;;;5034680;28;20441;-62
2021/09/24 10:16:37;;;;;;;6.03;4.60;;;21.70;99.90;;;;;;5034162;28;20402;-63
2021/09/24 10:19:04;;;;;;;4.70;4.30;;;22.10;99.90;;;;;;5054597;28;20406;-62
2021/09/24 10:21:30;;;;;;;5.53;4.30;;;22.60;99.90;;;;;;5054597;28;20401;-62
2021/09/24 10:23:56;;;;;;;6.87;5.43;;;22.60;99.90;;;;;;5054096;28;20535;-62
2021/09/24 10:26:41;;;;;;;5.03;4.53;;;22.60;99.90;;;;;;5054593;28;20819;-62
2021/09/24 10:29:12;;;;;;;5.33;4.33;;;22.90;99.90;;;;;;5054369;28;20476;-62
2021/09/24 10:31:40;;;;;;;4.40;4.00;;;22.90;99.90;;;;;;5054355;28;20398;-62
2021/09/24 10:34:06;;;;;;;5.00;4.50;;;22.90;99.90;;;;;;5053023;28;20444;-62
2021/09/24 10:36:38;;;;;;;4.20;3.73;;;23.00;99.90;;;;;;5054238;28;20473;-62
2021/09/24 10:39:25;;;;;;;5.87;4.27;;;23.50;99.90;;;;;;5054247;28;20374;-62
2021/09/24 10:42:25;;;;;;;4.70;3.77;;;24.00;99.90;;;;;;5054316;28;20409;-62
2021/09/24 10:45:10;;;;;;;3.80;3.43;;;24.50;99.70;;;;;;5054048;28;20516;-60
2021/09/24 10:47:44;;;;;;;3.50;3.20;;;24.40;99.60;;;;;;5054234;28;20431;-62
2021/09/24 10:50:28;;;;;;;3.53;3.23;;;23.90;99.50;;;;;;5053877;28;20397;-62
2021/09/24 10:53:22;;;;;;;3.57;2.77;;;23.90;99.80;;;;;;5053644;28;20464;-61
2021/09/24 10:55:54;;;;;;;4.70;4.07;;;23.80;99.90;;;;;;5053912;28;20492;-62
2021/09/24 10:58:31;;;;;;;4.73;4.17;;;23.60;99.90;;;;;;5053742;28;20397;-62
2021/09/24 11:01:06;;;;;;;3.90;3.60;;;23.70;99.60;;;;;;5054033;28;20787;-61
2021/09/24 11:03:34;;;;;;;3.80;2.80;;;23.60;99.60;;;;;;5053738;28;20420;-62
2021/09/24 11:06:07;;;;;;;3.87;3.40;;;24.60;99.00;;;;;;5053815;28;20390;-62
2021/09/24 11:08:38;;;;;;;2.70;2.50;;;26.40;96.20;;;;;;5052174;28;20504;-62
2021/09/24 11:11:10;;;;;;;3.13;2.83;;;26.50;95.40;;;;;;5053755;28;20408;-61
2021/09/24 11:13:46;;;;;;;3.70;3.07;;;27.00;95.30;;;;;;5053398;28;20417;-62
2021/09/24 11:16:22;;;;;;;3.27;3.00;;;27.90;93.50;;;;;;5053712;28;20377;-62
2021/09/24 11:18:53;;;;;;;4.47;2.70;;;29.20;91.00;;;;;;5053530;28;21034;-62
2021/09/24 11:22:04;;;;;;;3.37;3.00;;;30.20;88.80;;;;;;5053697;28;20500;-62
2021/09/24 11:24:32;;;;;;;3.23;2.93;;;30.60;82.20;;;;;;5052279;28;20520;-62
2021/09/24 11:27:03;;;;;;;3.50;3.03;;;31.90;77.90;;;;;;5053668;28;20405;-62
2021/09/24 11:29:30;;;;;;;3.93;3.10;;;31.40;79.20;;;;;;5053755;28;20412;-62
2021/09/24 11:31:56;;;;;;;7.87;2.90;;;30.30;79.00;;;;;;5055683;28;20413;-63
2021/09/24 11:34:39;;;;;;;4.50;3.43;;;29.90;80.90;;;;;;5058564;28;20555;-62
2021/09/24 11:37:07;;;;;;;2.83;2.50;;;30.20;76.80;;;;;;5053364;28;20165;-62
2021/09/24 11:39:35;;;;;;;3.30;2.60;;;31.30;75.10;;;;;;5053002;28;20944;-61
2021/09/24 11:42:12;;;;;;;3.40;2.93;;;31.60;74.50;;;;;;5053023;28;20397;-62
2021/09/24 11:44:46;;;;;;;4.73;3.27;;;31.40;73.20;;;;;;5052702;28;20448;-60
2021/09/24 11:47:20;;;;;;;3.27;2.97;;;32.00;71.00;;;;;;5047463;28;20861;-62
2021/09/24 11:50:07;;;;;;;3.20;2.87;;;32.60;70.80;;;;;;5037362;28;20468;-61
2021/09/24 11:52:39;;;;;;;3.43;3.13;;;31.90;68.00;;;;;;5032516;28;20406;-61
2021/09/24 11:55:32;;;;;;;3.20;3.00;;;31.80;68.40;;;;;;5033060;28;20445;-62
2021/09/24 11:58:06;;;;;;;3.30;3.00;;;32.70;67.20;;;;;;5033145;28;20383;-62
2021/09/24 12:00:35;;;;;;;3.37;2.60;;;33.90;63.30;;;;;;5032984;28;20466;-62
2021/09/24 12:03:09;;;;;;;3.60;3.30;;;34.90;60.90;;;;;;5032917;28;20516;-63
2021/09/24 12:05:34;;;;;;;7.03;3.33;;;35.00;59.00;;;;;;5033091;28;20469;-61
2021/09/24 12:08:00;;;;;;;3.20;2.90;;;34.60;59.20;;;;;;5032821;28;20493;-62
2021/09/24 12:10:27;;;;;;;5.37;3.27;;;34.60;58.90;;;;;;5033259;28;20175;-62
2021/09/24 12:13:34;;;;;;;3.20;3.00;;;33.30;60.20;;;;;;5046818;28;20199;-61
2021/09/24 12:16:00;;;;;;;4.80;4.40;;;33.20;62.30;;;;;;5013770;28;20456;-62
2021/09/24 12:18:49;;;;;;;3.03;2.83;;;31.80;65.10;;;;;;5052528;28;20427;-62
2021/09/24 12:21:18;;;;;;;3.60;2.80;;;32.80;61.90;;;;;;5053057;28;20753;-62
2021/09/24 12:23:44;;;;;;;2.60;2.40;;;33.00;61.70;;;;;;5052333;28;20432;-62
2021/09/24 12:26:11;;;;;;;3.37;3.17;;;34.10;59.60;;;;;;5052624;28;20408;-62
2021/09/24 12:28:38;;;;;;;3.13;2.83;;;33.40;58.80;;;;;;5052564;28;20393;-62
2021/09/24 12:31:05;;;;;;;3.20;2.90;;;33.40;60.50;;;;;;5052951;28;20397;-62
2021/09/24 12:33:32;;;;;;;5.17;3.80;;;33.70;59.60;;;;;;5052274;28;20508;-62
2021/09/24 12:36:07;;;;;;;3.63;3.33;;;34.50;58.00;;;;;;5053146;28;20398;-62
2021/09/24 12:38:35;;;;;;;4.43;3.23;;;33.40;57.30;;;;;;5052332;28;20439;-62
2021/09/24 12:41:13;;;;;;;3.47;3.17;;;33.20;58.60;;;;;;5052466;28;20420;-62
2021/09/24 12:43:40;;;;;;;4.17;3.77;;;34.30;56.70;;;;;;5052383;28;20424;-63
2021/09/24 12:46:06;;;;;;;3.80;3.37;;;34.30;55.60;;;;;;5052675;28;20401;-61
2021/09/24 12:48:36;;;;;;;4.60;4.07;;;33.90;55.90;;;;;;5052110;28;20547;-62
2021/09/24 12:51:03;;;;;;;3.70;3.40;;;34.50;56.30;;;;;;5052587;28;20417;-63